createdAt,value
2022-09-05T00:02:30.252Z,20.94
2022-09-05T00:05:09.864Z,20.87
2022-09-05T00:07:59.566Z,20.80
2022-09-05T00:11:19.463Z,20.73
2022-09-05T00:13:33.022Z,20.71
2022-09-05T00:16:25.860Z,20.75
2022-09-05T00:24:17.725Z,20.77
2022-09-05T00:24:31.662Z,20.75
2022-09-05T00:25:32.668Z,20.71
2022-09-05T00:28:26.316Z,20.67
2022-09-05T00:31:54.303Z,20.66
2022-09-05T00:34:47.016Z,20.75
2022-09-05T00:37:29.206Z,20.78
2022-09-05T00:40:18.514Z,20.75
2022-09-05T00:42:50.536Z,20.70
2022-09-05T00:45:28.061Z,20.63
2022-09-05T00:48:04.298Z,20.59
2022-09-05T00:50:41.949Z,20.43
2022-09-05T00:53:19.912Z,20.38
2022-09-05T00:55:59.130Z,20.39
2022-09-05T00:59:03.353Z,20.31
2022-09-05T01:01:44.802Z,20.30
2022-09-05T01:04:33.640Z,20.34
2022-09-05T01:07:18.008Z,20.36
2022-09-05T01:10:04.492Z,20.34
2022-09-05T01:12:53.129Z,20.38
2022-09-05T01:15:32.160Z,20.35
2022-09-05T01:18:23.267Z,20.29
2022-09-05T01:21:17.361Z,20.21
2022-09-05T01:24:04.565Z,20.23
2022-09-05T01:26:48.955Z,20.16
2022-09-05T01:29:26.684Z,20.13
2022-09-05T01:32:15.415Z,20.15
2022-09-05T01:35:00.731Z,20.16
2022-09-05T01:37:37.512Z,20.18
2022-09-05T01:40:25.122Z,20.14
2022-09-05T01:43:07.057Z,20.15
2022-09-05T01:45:50.637Z,20.13
2022-09-05T01:48:31.438Z,20.11
2022-09-05T01:51:28.942Z,20.04
2022-09-05T01:54:25.495Z,20.04
2022-09-05T01:57:12.301Z,19.99
2022-09-05T01:59:53.009Z,20.02
2022-09-05T02:02:50.862Z,20.10
2022-09-05T02:05:52.252Z,20.15
2022-09-05T02:08:31.352Z,20.16
2022-09-05T02:11:06.262Z,20.18
2022-09-05T02:13:55.246Z,20.25
2022-09-05T02:16:30.289Z,20.29
2022-09-05T02:19:08.408Z,20.22
2022-09-05T02:21:56.838Z,20.12
2022-09-05T02:24:30.525Z,20.19
2022-09-05T02:27:31.614Z,20.12
2022-09-05T02:30:11.150Z,20.18
2022-09-05T02:32:48.362Z,20.21
2022-09-05T02:35:26.458Z,20.22
2022-09-05T02:40:03.713Z,20.27
2022-09-05T02:45:08.708Z,20.28
2022-09-05T02:45:20.201Z,20.18
2022-09-05T02:46:50.840Z,20.24
2022-09-05T02:51:20.114Z,20.30
2022-09-05T02:57:25.428Z,20.23
2022-09-05T02:57:34.403Z,20.29
2022-09-05T02:58:31.307Z,20.32
2022-09-05T03:01:15.773Z,20.33
2022-09-05T03:03:53.786Z,20.34
2022-09-05T03:06:35.152Z,20.41
2022-09-05T03:09:25.530Z,20.38
2022-09-05T03:12:29.589Z,20.38
2022-09-05T03:15:38.965Z,20.26
2022-09-05T03:18:43.261Z,20.24
2022-09-05T03:21:48.886Z,20.32
2022-09-05T03:24:56.190Z,20.34
2022-09-05T03:28:09.276Z,20.26
2022-09-05T03:30:53.377Z,20.17
2022-09-05T03:33:51.051Z,20.20
2022-09-05T03:37:03.449Z,20.11
2022-09-05T03:40:16.927Z,20.17
2022-09-05T03:43:20.260Z,20.08
2022-09-05T03:46:15.579Z,19.91
2022-09-05T03:50:38.806Z,19.97
2022-09-05T03:57:05.748Z,19.96
2022-09-05T03:57:21.027Z,19.85
2022-09-05T03:58:55.469Z,19.88
2022-09-05T04:02:40.323Z,19.96
2022-09-05T04:08:06.780Z,19.97
2022-09-05T04:08:17.042Z,20.06
2022-09-05T04:10:12.093Z,20.04
2022-09-05T04:12:50.993Z,20.06
2022-09-05T04:15:30.354Z,20.10
2022-09-05T04:18:03.704Z,20.18
2022-09-05T04:20:40.950Z,20.11
2022-09-05T04:23:17.249Z,20.08
2022-09-05T04:26:11.126Z,20.09
2022-09-05T04:28:53.830Z,20.14
2022-09-05T04:31:31.591Z,20.13
2022-09-05T04:34:14.457Z,20.15
2022-09-05T04:36:46.000Z,20.18
2022-09-05T04:39:28.915Z,20.18
2022-09-05T04:42:04.064Z,20.15
2022-09-05T04:44:36.959Z,20.13
2022-09-05T04:47:14.259Z,20.12
2022-09-05T04:49:50.553Z,20.14
2022-09-05T04:52:59.005Z,20.15
2022-09-05T04:55:29.750Z,20.21
2022-09-05T04:58:01.909Z,20.22
2022-09-05T05:06:02.822Z,20.23
2022-09-05T05:06:09.089Z,20.22
2022-09-05T05:06:42.292Z,20.23
2022-09-05T05:09:21.878Z,20.15
2022-09-05T05:18:02.848Z,20.13
2022-09-05T05:18:06.722Z,20.16
2022-09-05T05:18:11.815Z,20.17
2022-09-05T05:20:42.674Z,20.18
2022-09-05T05:23:16.413Z,20.18
2022-09-05T05:25:50.664Z,20.23
2022-09-05T05:28:28.547Z,20.22
2022-09-05T05:31:01.967Z,20.23
2022-09-05T05:33:34.807Z,20.31
2022-09-05T05:36:05.484Z,20.31
2022-09-05T05:38:43.627Z,20.29
2022-09-05T05:41:19.088Z,20.28
2022-09-05T05:43:48.471Z,20.30
2022-09-05T05:46:29.782Z,20.33
2022-09-05T05:49:14.636Z,20.28
2022-09-05T05:52:00.958Z,20.33
2022-09-05T05:54:39.177Z,20.34
2022-09-05T05:57:33.037Z,20.39
2022-09-05T06:00:27.408Z,20.37
2022-09-05T06:03:33.654Z,20.34
2022-09-05T06:06:28.698Z,20.29
2022-09-05T06:14:52.252Z,20.36
2022-09-05T06:15:02.808Z,20.40
2022-09-05T06:16:30.856Z,20.47
2022-09-05T06:20:20.922Z,20.54
2022-09-05T06:22:55.482Z,20.58
2022-09-05T06:26:00.310Z,20.61
2022-09-05T06:28:42.316Z,20.60
2022-09-05T06:31:31.845Z,20.53
2022-09-05T06:34:33.282Z,20.61
2022-09-05T06:37:07.318Z,20.61
2022-09-05T06:39:53.247Z,20.70
2022-09-05T06:42:42.643Z,20.79
2022-09-05T06:45:39.348Z,20.82
2022-09-05T06:48:21.484Z,20.82
2022-09-05T06:51:31.669Z,20.87
2022-09-05T06:54:24.639Z,20.81
2022-09-05T06:57:17.290Z,20.73
2022-09-05T07:00:22.031Z,20.88
2022-09-05T07:03:15.365Z,20.89
2022-09-05T07:05:55.745Z,20.94
2022-09-05T07:08:35.966Z,21.01
2022-09-05T07:11:15.825Z,21.07
2022-09-05T07:13:57.563Z,21.07
2022-09-05T07:16:38.883Z,20.98
2022-09-05T07:19:25.575Z,21.09
2022-09-05T07:22:18.434Z,21.22
2022-09-05T07:24:57.896Z,21.33
2022-09-05T07:27:34.829Z,21.46
2022-09-05T07:30:20.665Z,21.49
2022-09-05T07:32:53.471Z,21.57
2022-09-05T07:35:29.329Z,21.43
2022-09-05T07:38:07.154Z,21.48
2022-09-05T07:40:39.749Z,21.60
2022-09-05T07:43:11.213Z,21.63
2022-09-05T07:45:56.123Z,21.79
2022-09-05T07:48:34.995Z,21.87
2022-09-05T07:56:47.856Z,21.84
2022-09-05T07:57:07.932Z,21.92
2022-09-05T07:59:42.721Z,22.16
2022-09-05T08:02:14.026Z,22.28
2022-09-05T08:04:42.987Z,22.29
2022-09-05T08:07:47.879Z,22.39
2022-09-05T08:10:11.121Z,22.55
2022-09-05T08:13:24.048Z,22.75
2022-09-05T08:16:13.436Z,22.92
2022-09-05T08:18:42.512Z,22.78
2022-09-05T08:21:14.803Z,22.83
2022-09-05T08:23:56.586Z,22.79
2022-09-05T08:26:44.059Z,22.90
2022-09-05T08:29:28.402Z,22.98
2022-09-05T08:32:03.534Z,23.27
2022-09-05T08:34:44.803Z,23.33
2022-09-05T08:37:21.650Z,23.48
2022-09-05T08:40:10.098Z,23.51
2022-09-05T08:44:09.913Z,23.55
2022-09-05T08:46:47.586Z,23.85
2022-09-05T08:49:12.398Z,24.13
2022-09-05T08:51:55.350Z,24.31
2022-09-05T08:54:33.099Z,24.06
2022-09-05T08:57:13.525Z,24.02
2022-09-05T09:00:02.725Z,24.17
2022-09-05T09:03:03.884Z,24.31
2022-09-05T09:06:13.434Z,24.57
2022-09-05T09:09:11.084Z,24.56
2022-09-05T09:11:44.602Z,24.73
2022-09-05T09:14:32.122Z,24.82
2022-09-05T09:17:10.481Z,25.01
2022-09-05T09:19:49.825Z,25.33
2022-09-05T09:22:33.257Z,25.44
2022-09-05T09:25:15.073Z,25.20
2022-09-05T09:28:48.487Z,25.43
2022-09-05T09:31:03.469Z,25.36
2022-09-05T09:33:41.877Z,25.43
2022-09-05T09:36:27.966Z,25.55
2022-09-05T09:39:37.411Z,25.84
2022-09-05T09:42:33.478Z,26.17
2022-09-05T09:45:29.699Z,25.94
2022-09-05T09:48:26.324Z,25.57
2022-09-05T09:51:12.716Z,25.50
2022-09-05T09:53:59.375Z,25.78
2022-09-05T09:57:00.729Z,25.95
2022-09-05T09:59:54.088Z,26.49
2022-09-05T10:08:57.404Z,26.73
2022-09-05T10:10:45.542Z,25.49
2022-09-05T10:10:55.577Z,25.38
2022-09-05T10:12:15.378Z,25.36
2022-09-05T10:15:06.559Z,25.31
2022-09-05T10:18:24.125Z,25.83
2022-09-05T10:21:25.807Z,25.86
2022-09-05T10:24:28.088Z,25.92
2022-09-05T10:27:26.837Z,25.80
2022-09-05T10:30:13.853Z,26.17
2022-09-05T10:35:07.718Z,26.24
2022-09-05T10:36:21.037Z,26.24
2022-09-05T10:39:02.630Z,26.36
2022-09-05T10:41:43.762Z,26.49
2022-09-05T10:44:15.104Z,26.43
2022-09-05T10:46:55.502Z,26.26
2022-09-05T10:49:29.983Z,26.42
2022-09-05T10:52:18.989Z,27.06
2022-09-05T10:55:16.148Z,27.63
2022-09-05T10:58:00.053Z,27.36
2022-09-05T11:02:22.383Z,26.77
2022-09-05T11:03:50.411Z,26.41
2022-09-05T11:06:24.983Z,26.75
2022-09-05T11:09:04.719Z,27.12
2022-09-05T11:11:46.162Z,26.58
2022-09-05T11:14:35.242Z,26.52
2022-09-05T11:17:14.531Z,26.77
2022-09-05T11:19:45.728Z,26.92
2022-09-05T11:22:22.941Z,27.17
2022-09-05T11:24:57.094Z,27.35
2022-09-05T11:27:31.833Z,27.32
2022-09-05T11:30:05.816Z,27.08
2022-09-05T11:39:53.971Z,27.13
2022-09-05T11:40:02.802Z,27.30
2022-09-05T11:40:09.001Z,27.07
2022-09-05T11:42:24.625Z,27.64
2022-09-05T11:45:16.794Z,27.83
2022-09-05T11:48:23.338Z,27.95
2022-09-05T11:51:10.120Z,27.81
2022-09-05T11:54:00.801Z,27.74
2022-09-05T11:57:11.393Z,27.47
2022-09-05T12:00:32.065Z,27.81
2022-09-05T12:03:58.037Z,28.11
2022-09-05T12:07:29.889Z,27.58
2022-09-05T12:10:10.590Z,27.86
2022-09-05T12:13:17.507Z,28.30
2022-09-05T12:16:08.100Z,28.40
2022-09-05T12:18:46.622Z,28.02
2022-09-05T12:21:31.738Z,28.32
2022-09-05T12:24:59.298Z,28.39
2022-09-05T12:27:40.470Z,28.17
2022-09-05T12:29:59.749Z,28.31
2022-09-05T12:34:46.705Z,28.32
2022-09-05T12:36:10.173Z,28.60
2022-09-05T12:40:44.819Z,28.53
2022-09-05T12:41:44.939Z,28.80
2022-09-05T12:44:44.408Z,28.49
2022-09-05T12:47:19.794Z,28.31
2022-09-05T12:50:02.653Z,27.76
2022-09-05T12:52:42.554Z,27.74
2022-09-05T12:55:20.783Z,27.55
2022-09-05T13:02:15.994Z,27.93
2022-09-05T13:03:12.524Z,27.96
2022-09-05T13:03:48.500Z,28.01
2022-09-05T13:06:31.536Z,28.60
2022-09-05T13:09:05.018Z,28.64
2022-09-05T13:14:56.585Z,29.90
2022-09-05T13:15:03.211Z,29.18
2022-09-05T13:17:44.422Z,30.46
2022-09-05T13:20:20.457Z,30.66
2022-09-05T13:22:54.341Z,30.07
2022-09-05T13:25:27.253Z,28.87
2022-09-05T13:28:01.676Z,28.72
2022-09-05T13:36:38.679Z,29.20
2022-09-05T13:38:04.623Z,29.50
2022-09-05T13:38:11.256Z,30.28
2022-09-05T13:39:12.888Z,30.03
2022-09-05T13:41:46.272Z,30.52
2022-09-05T13:44:25.648Z,30.63
2022-09-05T13:47:01.083Z,30.30
2022-09-05T13:49:35.253Z,30.37
2022-09-05T13:52:22.387Z,30.14
2022-09-05T13:55:00.550Z,30.65
2022-09-05T13:57:37.308Z,31.08
2022-09-05T14:00:53.067Z,30.94
2022-09-05T14:03:58.800Z,30.96
2022-09-05T14:10:21.948Z,30.63
2022-09-05T14:13:01.223Z,30.71
2022-09-05T14:15:41.069Z,30.69
2022-09-05T14:18:21.420Z,31.12
2022-09-05T14:21:13.483Z,30.98
2022-09-05T14:23:48.651Z,31.49
2022-09-05T14:26:24.860Z,31.66
2022-09-05T14:29:02.289Z,31.28
2022-09-05T14:35:20.779Z,31.03
2022-09-05T14:37:38.988Z,30.98
2022-09-05T14:38:07.914Z,30.77
2022-09-05T14:41:28.365Z,30.93
2022-09-05T14:44:27.608Z,31.02
2022-09-05T14:47:34.676Z,30.79
2022-09-05T14:50:29.343Z,30.39
2022-09-05T14:56:23.175Z,31.49
2022-09-05T15:02:49.131Z,30.65
2022-09-05T15:02:52.914Z,30.93
2022-09-05T15:04:44.687Z,30.19
2022-09-05T15:07:19.726Z,29.90
2022-09-05T15:12:15.725Z,30.22
2022-09-05T15:12:51.207Z,30.19
2022-09-05T15:15:26.085Z,29.95
2022-09-05T15:17:59.934Z,29.85
2022-09-05T15:20:35.844Z,29.95
2022-09-05T15:23:16.197Z,29.66
2022-09-05T15:25:48.424Z,29.63
2022-09-05T15:28:23.157Z,30.12
2022-09-05T15:31:00.082Z,30.32
2022-09-05T15:33:31.369Z,30.63
2022-09-05T15:36:00.781Z,30.77
2022-09-05T15:38:38.747Z,30.31
2022-09-05T15:41:23.804Z,29.78
2022-09-05T15:43:58.371Z,29.51
2022-09-05T15:46:39.451Z,29.32
2022-09-05T15:49:14.329Z,29.23
2022-09-05T15:51:48.097Z,29.40
2022-09-05T15:54:38.112Z,29.47
2022-09-05T15:57:17.517Z,29.66
2022-09-05T15:59:49.525Z,29.93
2022-09-05T16:02:22.268Z,30.23
2022-09-05T16:10:29.253Z,30.56
2022-09-05T16:10:43.754Z,30.58
2022-09-05T16:11:20.296Z,30.61
2022-09-05T16:13:52.599Z,30.64
2022-09-05T16:23:09.313Z,30.58
2022-09-05T16:23:24.302Z,29.88
2022-09-05T16:23:26.563Z,30.29
2022-09-05T16:25:01.397Z,30.06
2022-09-05T16:27:43.871Z,30.03
2022-09-05T16:30:15.745Z,29.82
2022-09-05T16:32:50.929Z,29.44
2022-09-05T16:35:24.895Z,29.44
2022-09-05T16:38:03.412Z,29.52
2022-09-05T16:40:36.347Z,29.57
2022-09-05T16:43:10.160Z,29.74
2022-09-05T16:45:46.136Z,29.76
2022-09-05T16:48:43.215Z,29.63
2022-09-05T16:51:34.778Z,28.96
2022-09-05T16:54:14.031Z,27.90
2022-09-05T16:56:45.768Z,27.38
2022-09-05T16:59:19.258Z,27.54
2022-09-05T17:02:05.915Z,27.60
2022-09-05T17:05:05.001Z,27.54
2022-09-05T17:07:50.453Z,27.60
2022-09-05T17:10:24.256Z,27.70
2022-09-05T17:12:53.024Z,27.64
2022-09-05T17:15:26.234Z,27.65
2022-09-05T17:18:20.698Z,27.82
2022-09-05T17:20:52.160Z,27.97
2022-09-05T17:29:16.804Z,28.06
2022-09-05T17:29:37.958Z,27.88
2022-09-05T17:31:23.407Z,27.77
2022-09-05T17:32:28.500Z,27.37
2022-09-05T17:35:18.206Z,27.14
2022-09-05T17:38:19.269Z,27.40
2022-09-05T17:41:15.279Z,27.33
2022-09-05T17:43:51.079Z,27.42
2022-09-05T17:46:23.812Z,27.37
2022-09-05T17:49:18.866Z,27.35
2022-09-05T17:52:20.584Z,27.04
2022-09-05T17:54:52.404Z,26.86
2022-09-05T17:57:40.041Z,26.78
2022-09-05T18:00:47.422Z,27.08
2022-09-05T18:04:15.890Z,26.37
2022-09-05T18:06:59.250Z,26.09
2022-09-05T18:10:12.705Z,25.80
2022-09-05T18:13:12.657Z,25.53
2022-09-05T18:16:12.460Z,25.60
2022-09-05T18:19:27.625Z,25.31
2022-09-05T18:21:49.610Z,25.47
2022-09-05T18:24:42.693Z,25.32
2022-09-05T18:30:13.151Z,25.15
2022-09-05T18:34:03.426Z,25.08
2022-09-05T18:36:42.674Z,25.41
2022-09-05T18:39:47.246Z,24.81
2022-09-05T18:42:33.634Z,24.94
2022-09-05T18:45:14.614Z,24.90
2022-09-05T18:47:50.951Z,24.93
2022-09-05T18:50:29.356Z,24.78
2022-09-05T18:53:09.991Z,24.76
2022-09-05T18:56:12.616Z,24.48
2022-09-05T18:58:35.978Z,24.58
2022-09-05T19:01:28.331Z,24.31
2022-09-05T19:04:01.093Z,24.61
2022-09-05T19:06:36.412Z,24.41
2022-09-05T19:09:09.151Z,24.40
2022-09-05T19:11:52.754Z,24.41
2022-09-05T19:14:37.628Z,24.37
2022-09-05T19:17:10.437Z,24.41
2022-09-05T19:20:31.961Z,24.36
2022-09-05T19:23:11.351Z,24.47
2022-09-05T19:25:43.594Z,24.42
2022-09-05T19:36:58.355Z,24.52
2022-09-05T19:37:03.124Z,24.34
2022-09-05T19:37:03.293Z,24.38
2022-09-05T19:47:11.021Z,23.80
2022-09-05T19:47:26.678Z,23.87
2022-09-05T19:47:36.818Z,23.67
2022-09-05T19:48:25.293Z,23.82
2022-09-05T19:50:56.850Z,23.53
2022-09-05T19:53:25.909Z,23.60
2022-09-05T19:55:54.861Z,23.69
2022-09-05T19:58:25.007Z,23.82
2022-09-05T20:01:03.615Z,23.74
2022-09-05T20:03:39.140Z,23.43
2022-09-05T20:06:29.357Z,23.53
2022-09-05T20:09:11.297Z,23.21
2022-09-05T20:11:46.292Z,23.37
2022-09-05T20:14:23.883Z,23.17
2022-09-05T20:16:54.948Z,22.97
2022-09-05T20:19:31.238Z,22.82
2022-09-05T20:22:14.371Z,22.79
2022-09-05T20:24:52.354Z,22.75
2022-09-05T20:27:27.127Z,22.73
2022-09-05T20:29:58.277Z,22.73
2022-09-05T20:32:38.535Z,22.60
2022-09-05T20:40:05.472Z,22.55
2022-09-05T20:43:16.585Z,22.56
2022-09-05T20:43:26.922Z,22.62
2022-09-05T20:43:58.242Z,22.62
2022-09-05T20:54:10.217Z,22.73
2022-09-05T20:54:10.559Z,22.54
2022-09-05T20:54:23.016Z,22.76
2022-09-05T20:55:38.651Z,22.70
2022-09-05T20:58:10.000Z,22.74
2022-09-05T21:00:40.062Z,22.71
2022-09-05T21:03:09.249Z,22.47
2022-09-05T21:05:40.052Z,22.44
2022-09-05T21:08:34.930Z,22.65
2022-09-05T21:11:05.087Z,22.68
2022-09-05T21:13:36.190Z,22.62
2022-09-05T21:16:15.854Z,22.67
2022-09-05T21:18:45.254Z,22.52
2022-09-05T21:21:28.364Z,22.40
2022-09-05T21:24:15.920Z,22.37
2022-09-05T21:26:50.416Z,22.40
2022-09-05T21:29:32.444Z,22.27
2022-09-05T21:32:10.555Z,22.14
2022-09-05T21:34:45.092Z,22.02
2022-09-05T21:37:16.191Z,21.73
2022-09-05T21:39:59.328Z,21.57
2022-09-05T21:42:54.753Z,21.49
2022-09-05T21:47:39.614Z,21.55
2022-09-05T21:48:08.996Z,21.42
2022-09-05T21:50:41.925Z,21.45
2022-09-05T21:55:09.330Z,21.35
2022-09-05T21:59:20.937Z,21.31
2022-09-05T21:59:27.094Z,21.17
2022-09-05T22:01:51.402Z,21.14
2022-09-05T22:04:22.637Z,21.11
2022-09-05T22:06:53.206Z,21.09
2022-09-05T22:09:23.262Z,21.09
2022-09-05T22:11:53.713Z,21.12
2022-09-05T22:14:24.490Z,21.02
2022-09-05T22:16:56.258Z,21.02
2022-09-05T22:19:37.774Z,20.94
2022-09-05T22:22:16.266Z,20.75
2022-09-05T22:24:51.070Z,20.95
2022-09-05T22:27:22.714Z,20.91
2022-09-05T22:29:52.490Z,20.90
2022-09-05T22:32:34.806Z,20.88
2022-09-05T22:35:27.331Z,21.01
2022-09-05T22:38:01.417Z,21.03
2022-09-05T22:40:32.104Z,21.02
2022-09-05T22:43:05.314Z,20.94
2022-09-05T22:45:35.206Z,20.84
2022-09-05T22:48:09.239Z,20.89
2022-09-05T22:50:37.923Z,21.04
2022-09-05T22:53:07.145Z,20.98
2022-09-05T22:55:35.609Z,21.08
2022-09-05T22:58:05.730Z,21.01
2022-09-05T23:00:34.778Z,21.14
2022-09-05T23:03:05.997Z,21.19
2022-09-05T23:05:35.293Z,21.06
2022-09-05T23:08:05.213Z,20.92
2022-09-05T23:10:33.590Z,20.93
2022-09-05T23:13:06.697Z,20.94
2022-09-05T23:15:34.927Z,20.91
2022-09-05T23:18:04.318Z,20.84
2022-09-05T23:20:33.466Z,20.80
2022-09-05T23:23:05.490Z,20.65
2022-09-05T23:25:34.130Z,20.59
2022-09-05T23:28:08.055Z,20.50
2022-09-05T23:30:36.737Z,20.49
2022-09-05T23:33:07.403Z,20.40
2022-09-05T23:35:36.043Z,20.50
2022-09-05T23:38:04.667Z,20.46
2022-09-05T23:40:32.899Z,20.48
2022-09-05T23:43:01.376Z,20.54
2022-09-05T23:45:31.333Z,20.68
2022-09-05T23:47:59.928Z,20.52
2022-09-05T23:50:29.128Z,20.48
2022-09-05T23:52:58.012Z,20.48
2022-09-05T23:55:27.274Z,20.58
2022-09-05T23:57:58.846Z,20.74
